createdAt,value
2023-01-08T00:00:58.441Z,11.06
2023-01-08T00:01:58.391Z,11.09
2023-01-08T00:02:58.477Z,11.07
2023-01-08T00:03:58.388Z,11.07
2023-01-08T00:04:58.346Z,11.09
2023-01-08T00:05:58.331Z,11.07
2023-01-08T00:06:58.317Z,11.06
2023-01-08T00:07:58.328Z,11.09
2023-01-08T00:08:58.301Z,11.07
2023-01-08T00:09:58.294Z,11.09
2023-01-08T00:10:58.276Z,11.09
2023-01-08T00:11:58.272Z,11.09
2023-01-08T00:12:58.279Z,11.07
2023-01-08T00:13:58.233Z,11.09
2023-01-08T00:14:58.233Z,11.07
2023-01-08T00:15:58.212Z,11.07
2023-01-08T00:16:58.270Z,11.09
2023-01-08T00:17:58.194Z,11.09
2023-01-08T00:18:58.214Z,11.09
2023-01-08T00:19:58.178Z,11.09
2023-01-08T00:20:58.162Z,11.10
2023-01-08T00:21:58.164Z,11.10
2023-01-08T00:22:58.141Z,11.11
2023-01-08T00:23:58.173Z,11.11
2023-01-08T00:24:58.120Z,11.11
2023-01-08T00:25:58.114Z,11.11
2023-01-08T00:26:58.094Z,11.13
2023-01-08T00:27:58.092Z,11.11
2023-01-08T00:28:58.079Z,11.13
2023-01-08T00:29:58.102Z,11.11
2023-01-08T00:30:58.142Z,11.13
2023-01-08T00:31:58.053Z,11.10
2023-01-08T00:32:58.039Z,11.11
2023-01-08T00:33:58.027Z,11.11
2023-01-08T00:34:58.038Z,11.11
2023-01-08T00:35:58.119Z,11.11
2023-01-08T00:36:57.985Z,11.13
2023-01-08T00:37:57.986Z,11.11
2023-01-08T00:38:57.983Z,11.13
2023-01-08T00:39:57.964Z,11.13
2023-01-08T00:40:57.942Z,11.13
2023-01-08T00:41:57.943Z,11.13
2023-01-08T00:42:57.934Z,11.13
2023-01-08T00:43:57.940Z,11.13
2023-01-08T00:44:57.907Z,11.13
2023-01-08T00:45:57.979Z,11.11
2023-01-08T00:46:57.874Z,11.11
2023-01-08T00:47:57.891Z,11.11
2023-01-08T00:48:57.863Z,11.11
2023-01-08T00:49:57.883Z,11.13
2023-01-08T00:50:57.844Z,11.14
2023-01-08T00:51:57.842Z,11.13
2023-01-08T00:52:57.826Z,11.13
2023-01-08T00:53:57.812Z,11.13
2023-01-08T00:54:57.814Z,11.11
2023-01-08T00:55:57.777Z,11.11
2023-01-08T00:56:57.766Z,11.11
2023-01-08T00:57:57.761Z,11.10
2023-01-08T00:58:57.751Z,11.11
2023-01-08T00:59:57.758Z,11.09
2023-01-08T01:00:57.802Z,11.10
2023-01-08T01:01:57.829Z,11.07
2023-01-08T01:02:57.713Z,11.09
2023-01-08T01:03:57.773Z,11.07
2023-01-08T01:04:57.722Z,11.07
2023-01-08T01:05:57.681Z,11.07
2023-01-08T01:06:57.688Z,11.06
2023-01-08T01:07:57.651Z,11.07
2023-01-08T01:08:57.638Z,11.09
2023-01-08T01:09:57.637Z,11.09
2023-01-08T01:10:57.625Z,11.09
2023-01-08T01:11:57.671Z,11.10
2023-01-08T01:12:57.602Z,11.09
2023-01-08T01:13:57.601Z,11.09
2023-01-08T01:14:57.596Z,11.07
2023-01-08T01:15:57.582Z,11.09
2023-01-08T01:16:57.625Z,11.09
2023-01-08T01:17:57.589Z,11.10
2023-01-08T01:18:57.543Z,11.09
2023-01-08T01:19:57.521Z,11.10
2023-01-08T01:20:57.515Z,11.10
2023-01-08T01:21:57.508Z,11.10
2023-01-08T01:22:57.499Z,11.09
2023-01-08T01:23:57.498Z,11.10
2023-01-08T01:24:57.467Z,11.11
2023-01-08T01:25:57.474Z,11.13
2023-01-08T01:26:57.438Z,11.13
2023-01-08T01:27:57.457Z,11.13
2023-01-08T01:28:57.469Z,11.16
2023-01-08T01:29:57.408Z,11.14
2023-01-08T01:30:57.438Z,11.13
2023-01-08T01:31:57.394Z,11.13
2023-01-08T01:32:57.385Z,11.14
2023-01-08T01:33:57.421Z,11.14
2023-01-08T01:34:57.369Z,11.16
2023-01-08T01:35:57.350Z,11.14
2023-01-08T01:36:57.361Z,11.14
2023-01-08T01:37:57.354Z,11.14
2023-01-08T01:38:57.358Z,11.17
2023-01-08T01:39:57.322Z,11.17
2023-01-08T01:40:57.295Z,11.19
2023-01-08T01:41:57.306Z,11.20
2023-01-08T01:42:57.278Z,11.20
2023-01-08T01:43:57.289Z,11.19
2023-01-08T01:44:57.259Z,11.19
2023-01-08T01:45:57.298Z,11.19
2023-01-08T01:46:57.233Z,11.19
2023-01-08T01:47:57.213Z,11.19
2023-01-08T01:48:57.208Z,11.20
2023-01-08T01:49:57.242Z,11.17
2023-01-08T01:50:57.185Z,11.19
2023-01-08T01:51:57.182Z,11.19
2023-01-08T01:52:57.160Z,11.17
2023-01-08T01:53:57.151Z,11.19
2023-01-08T01:54:57.141Z,11.20
2023-01-08T01:55:57.152Z,11.21
2023-01-08T01:56:57.121Z,11.21
2023-01-08T01:57:57.101Z,11.21
2023-01-08T01:58:57.095Z,11.25
2023-01-08T01:59:57.090Z,11.24
2023-01-08T02:00:57.126Z,11.24
2023-01-08T02:01:57.248Z,11.25
2023-01-08T02:02:57.051Z,11.21
2023-01-08T02:03:57.099Z,11.24
2023-01-08T02:04:57.033Z,11.20
2023-01-08T02:05:57.032Z,11.20
2023-01-08T02:06:57.041Z,11.21
2023-01-08T02:07:57.006Z,11.20
2023-01-08T02:08:57.000Z,11.19
2023-01-08T02:09:56.974Z,11.19
2023-01-08T02:10:56.964Z,11.20
2023-01-08T02:11:56.974Z,11.20
2023-01-08T02:12:56.945Z,11.20
2023-01-08T02:13:56.933Z,11.24
2023-01-08T02:14:56.934Z,11.24
2023-01-08T02:15:56.920Z,11.24
2023-01-08T02:16:56.992Z,11.24
2023-01-08T02:17:56.893Z,11.21
2023-01-08T02:18:56.887Z,11.24
2023-01-08T02:19:56.871Z,11.21
2023-01-08T02:20:56.865Z,11.19
2023-01-08T02:21:56.849Z,11.20
2023-01-08T02:22:56.874Z,11.19
2023-01-08T02:23:56.828Z,11.17
2023-01-08T02:24:56.814Z,11.14
2023-01-08T02:25:56.812Z,11.14
2023-01-08T02:26:56.802Z,11.16
2023-01-08T02:27:56.804Z,11.14
2023-01-08T02:28:56.771Z,11.16
2023-01-08T02:29:56.753Z,11.17
2023-01-08T02:30:56.808Z,11.16
2023-01-08T02:31:56.747Z,11.16
2023-01-08T02:32:56.744Z,11.13
2023-01-08T02:33:56.719Z,11.13
2023-01-08T02:34:56.704Z,11.13
2023-01-08T02:35:56.695Z,11.11
2023-01-08T02:36:56.689Z,11.10
2023-01-08T02:37:56.693Z,11.10
2023-01-08T02:38:56.664Z,11.10
2023-01-08T02:39:56.646Z,11.09
2023-01-08T02:40:56.643Z,11.07
2023-01-08T02:41:56.647Z,11.03
2023-01-08T02:42:56.650Z,11.02
2023-01-08T02:43:56.608Z,11.03
2023-01-08T02:44:56.607Z,11.03
2023-01-08T02:45:56.611Z,11.06
2023-01-08T02:46:56.575Z,11.03
2023-01-08T02:47:56.573Z,11.03
2023-01-08T02:48:56.574Z,11.03
2023-01-08T02:49:56.539Z,11.09
2023-01-08T02:50:56.540Z,11.09
2023-01-08T02:51:56.519Z,11.11
2023-01-08T02:52:56.505Z,11.11
2023-01-08T02:53:56.516Z,11.14
2023-01-08T02:54:56.497Z,11.16
2023-01-08T02:55:56.467Z,11.19
2023-01-08T02:56:56.465Z,11.19
2023-01-08T02:57:56.458Z,11.19
2023-01-08T02:58:56.468Z,11.20
2023-01-08T02:59:56.434Z,11.20
2023-01-08T03:00:56.464Z,11.19
2023-01-08T03:01:56.608Z,11.19
2023-01-08T03:02:56.399Z,11.19
2023-01-08T03:03:56.419Z,11.19
2023-01-08T03:04:56.392Z,11.20
2023-01-08T03:05:56.367Z,11.21
2023-01-08T03:06:56.359Z,11.21
2023-01-08T03:07:56.343Z,11.19
2023-01-08T03:08:56.354Z,11.17
2023-01-08T03:09:56.329Z,11.16
2023-01-08T03:10:56.308Z,11.14
2023-01-08T03:11:56.304Z,11.13
2023-01-08T03:12:56.289Z,11.10
2023-01-08T03:13:56.303Z,11.13
2023-01-08T03:14:56.269Z,11.14
2023-01-08T03:15:56.266Z,11.14
2023-01-08T03:16:56.283Z,11.13
2023-01-08T03:17:56.269Z,11.07
2023-01-08T03:19:03.293Z,11.06
2023-01-08T03:19:56.252Z,11.02
2023-01-08T03:20:56.199Z,11.01
2023-01-08T03:21:56.207Z,10.99
2023-01-08T03:22:56.182Z,10.99
2023-01-08T03:23:56.223Z,10.99
2023-01-08T03:24:56.167Z,11.01
2023-01-08T03:25:56.165Z,11.02
2023-01-08T03:26:56.153Z,11.02
2023-01-08T03:27:56.146Z,11.02
2023-01-08T03:28:56.145Z,11.02
2023-01-08T03:29:56.102Z,11.01
2023-01-08T03:30:56.136Z,10.99
2023-01-08T03:31:56.086Z,10.96
2023-01-08T03:32:56.083Z,10.95
2023-01-08T03:33:56.062Z,10.95
2023-01-08T03:34:56.082Z,10.94
2023-01-08T03:35:56.041Z,10.92
2023-01-08T03:36:56.032Z,10.92
2023-01-08T03:37:56.026Z,10.92
2023-01-08T03:38:56.014Z,10.92
2023-01-08T03:39:56.006Z,10.92
2023-01-08T03:40:56.005Z,10.89
2023-01-08T03:41:55.973Z,10.89
2023-01-08T03:42:55.963Z,10.86
2023-01-08T03:43:55.953Z,10.84
2023-01-08T03:44:56.000Z,10.84
2023-01-08T03:45:55.978Z,10.86
2023-01-08T03:46:55.934Z,10.86
2023-01-08T03:47:55.904Z,10.86
2023-01-08T03:48:55.902Z,10.88
2023-01-08T03:49:55.913Z,10.88
2023-01-08T03:50:55.876Z,10.88
2023-01-08T03:51:55.864Z,10.89
2023-01-08T03:52:55.857Z,10.89
2023-01-08T03:53:55.847Z,10.91
2023-01-08T03:54:55.858Z,10.89
2023-01-08T03:55:55.847Z,10.89
2023-01-08T03:56:55.825Z,10.89
2023-01-08T03:57:55.824Z,10.89
2023-01-08T03:58:55.793Z,10.91
2023-01-08T03:59:55.779Z,10.91
2023-01-08T04:00:55.791Z,10.89
2023-01-08T04:01:55.893Z,10.89
2023-01-08T04:02:55.743Z,10.89
2023-01-08T04:03:55.762Z,10.86
2023-01-08T04:04:55.722Z,10.86
2023-01-08T04:05:55.709Z,10.84
2023-01-08T04:06:55.730Z,10.83
2023-01-08T04:07:55.691Z,10.86
2023-01-08T04:08:55.677Z,10.81
2023-01-08T04:09:55.679Z,10.80
2023-01-08T04:10:55.659Z,10.80
2023-01-08T04:11:55.669Z,10.78
2023-01-08T04:12:55.662Z,10.80
2023-01-08T04:13:55.631Z,10.80
2023-01-08T04:14:55.609Z,10.80
2023-01-08T04:15:55.688Z,10.81
2023-01-08T04:16:55.596Z,10.80
2023-01-08T04:17:55.600Z,10.80
2023-01-08T04:18:55.570Z,10.83
2023-01-08T04:19:55.636Z,10.81
2023-01-08T04:20:55.554Z,10.80
2023-01-08T04:21:55.526Z,10.78
2023-01-08T04:22:55.555Z,10.76
2023-01-08T04:23:55.513Z,10.74
2023-01-08T04:24:55.498Z,10.74
2023-01-08T04:25:55.492Z,10.73
2023-01-08T04:26:56.167Z,10.73
2023-01-08T04:27:55.469Z,10.71
2023-01-08T04:28:55.487Z,10.71
2023-01-08T04:29:55.442Z,10.71
2023-01-08T04:30:55.490Z,10.71
2023-01-08T04:31:55.420Z,10.73
2023-01-08T04:32:55.409Z,10.73
2023-01-08T04:33:55.428Z,10.74
2023-01-08T04:34:55.398Z,10.74
2023-01-08T04:35:55.420Z,10.76
2023-01-08T04:36:55.397Z,10.73
2023-01-08T04:37:55.359Z,10.71
2023-01-08T04:38:55.354Z,10.70
2023-01-08T04:39:55.332Z,10.70
2023-01-08T04:40:55.333Z,10.71
2023-01-08T04:41:55.337Z,10.73
2023-01-08T04:42:55.309Z,10.74
2023-01-08T04:43:55.289Z,10.76
2023-01-08T04:44:55.291Z,10.77
2023-01-08T04:45:55.323Z,10.80
2023-01-08T04:46:55.279Z,10.81
2023-01-08T04:47:55.241Z,10.81
2023-01-08T04:48:55.240Z,10.83
2023-01-08T04:49:55.218Z,10.84
2023-01-08T04:50:55.221Z,10.86
2023-01-08T04:51:55.228Z,10.86
2023-01-08T04:52:55.181Z,10.84
2023-01-08T04:53:55.179Z,10.86
2023-01-08T04:54:55.169Z,10.86
2023-01-08T04:55:55.159Z,10.86
2023-01-08T04:56:55.161Z,10.88
2023-01-08T04:57:55.134Z,10.88
2023-01-08T04:58:55.121Z,10.88
2023-01-08T04:59:55.115Z,10.86
2023-01-08T05:00:55.102Z,10.88
2023-01-08T05:01:55.170Z,10.86
2023-01-08T05:02:55.269Z,10.89
2023-01-08T05:03:55.066Z,10.91
2023-01-08T05:04:55.082Z,10.89
2023-01-08T05:05:55.047Z,10.91
2023-01-08T05:06:55.036Z,10.92
2023-01-08T05:07:55.056Z,10.92
2023-01-08T05:08:55.026Z,10.89
2023-01-08T05:09:55.014Z,10.89
2023-01-08T05:10:54.994Z,10.89
2023-01-08T05:11:55.007Z,10.91
2023-01-08T05:12:54.964Z,10.91
2023-01-08T05:13:54.969Z,10.91
2023-01-08T05:14:54.979Z,10.91
2023-01-08T05:15:55.033Z,10.91
2023-01-08T05:16:54.924Z,10.91
2023-01-08T05:17:54.921Z,10.88
2023-01-08T05:18:54.903Z,10.88
2023-01-08T05:19:54.922Z,10.88
2023-01-08T05:20:54.888Z,10.88
2023-01-08T05:21:54.872Z,10.88
2023-01-08T05:22:54.854Z,10.89
2023-01-08T05:23:54.861Z,10.89
2023-01-08T05:24:54.875Z,10.89
2023-01-08T05:25:54.828Z,10.88
2023-01-08T05:26:54.815Z,10.89
2023-01-08T05:27:54.805Z,10.89
2023-01-08T05:28:54.793Z,10.88
2023-01-08T05:29:54.812Z,10.86
2023-01-08T05:30:54.855Z,10.86
2023-01-08T05:31:54.763Z,10.84
2023-01-08T05:32:54.748Z,10.84
2023-01-08T05:33:54.754Z,10.83
2023-01-08T05:34:54.749Z,10.81
2023-01-08T05:35:54.715Z,10.81
2023-01-08T05:36:54.706Z,10.81
2023-01-08T05:37:54.695Z,10.77
2023-01-08T05:38:54.687Z,10.77
2023-01-08T05:39:54.700Z,10.77
2023-01-08T05:40:54.676Z,10.78
2023-01-08T05:41:54.665Z,10.78
2023-01-08T05:42:54.656Z,10.78
2023-01-08T05:43:54.626Z,10.80
2023-01-08T05:44:54.625Z,10.78
2023-01-08T05:45:54.703Z,10.78
2023-01-08T05:46:54.823Z,10.78
2023-01-08T05:47:54.584Z,10.78
2023-01-08T05:48:54.572Z,10.77
2023-01-08T05:49:54.557Z,10.76
2023-01-08T05:50:54.548Z,10.76
2023-01-08T05:51:54.566Z,10.76
2023-01-08T05:52:54.526Z,10.74
2023-01-08T05:53:54.528Z,10.73
2023-01-08T05:54:54.497Z,10.71
2023-01-08T05:55:54.497Z,10.71
2023-01-08T05:56:54.486Z,10.70
2023-01-08T05:57:54.502Z,10.71
2023-01-08T05:58:54.459Z,10.70
2023-01-08T05:59:54.454Z,10.68
2023-01-08T06:00:54.440Z,10.66
2023-01-08T06:01:54.421Z,10.66
2023-01-08T06:02:54.455Z,10.68
2023-01-08T06:03:54.433Z,10.68
2023-01-08T06:04:54.433Z,10.66
2023-01-08T06:05:54.388Z,10.70
2023-01-08T06:06:54.381Z,10.68
2023-01-08T06:07:54.373Z,10.68
2023-01-08T06:08:54.367Z,10.70
2023-01-08T06:09:54.359Z,10.70
2023-01-08T06:10:54.335Z,10.68
2023-01-08T06:11:54.329Z,10.68
2023-01-08T06:12:54.300Z,10.63
2023-01-08T06:13:54.298Z,10.62
2023-01-08T06:14:54.305Z,10.63
2023-01-08T06:15:54.334Z,10.62
2023-01-08T06:16:54.251Z,10.62
2023-01-08T06:17:54.249Z,10.62
2023-01-08T06:18:54.321Z,10.60
2023-01-08T06:19:54.239Z,10.62
2023-01-08T06:20:54.209Z,10.62
2023-01-08T06:21:54.204Z,10.63
2023-01-08T06:22:54.188Z,10.63
2023-01-08T06:23:54.182Z,10.62
2023-01-08T06:24:54.190Z,10.63
2023-01-08T06:25:54.180Z,10.65
2023-01-08T06:26:54.143Z,10.63
2023-01-08T06:27:54.133Z,10.63
2023-01-08T06:28:54.122Z,10.66
2023-01-08T06:29:54.117Z,10.65
2023-01-08T06:30:54.250Z,10.63
2023-01-08T06:31:54.090Z,10.66
2023-01-08T06:32:54.078Z,10.70
2023-01-08T06:33:54.073Z,10.71
2023-01-08T06:34:54.053Z,10.70
2023-01-08T06:35:54.074Z,10.70
2023-01-08T06:36:54.041Z,10.66
2023-01-08T06:37:54.035Z,10.65
2023-01-08T06:38:54.011Z,10.63
2023-01-08T06:39:54.050Z,10.66
2023-01-08T06:40:53.994Z,10.68
2023-01-08T06:41:54.005Z,10.68
2023-01-08T06:42:53.964Z,10.66
2023-01-08T06:43:53.967Z,10.66
2023-01-08T06:44:53.947Z,10.65
2023-01-08T06:45:53.941Z,10.62
2023-01-08T06:46:54.081Z,10.60
2023-01-08T06:47:53.918Z,10.58
2023-01-08T06:48:53.892Z,10.56
2023-01-08T06:49:53.891Z,10.52
2023-01-08T06:50:53.877Z,10.51
2023-01-08T06:51:53.882Z,10.47
2023-01-08T06:52:53.865Z,10.47
2023-01-08T06:53:53.847Z,10.47
2023-01-08T06:54:53.852Z,10.53
2023-01-08T06:55:53.825Z,10.58
2023-01-08T06:56:54.561Z,10.59
2023-01-08T06:57:53.801Z,10.60
2023-01-08T06:58:53.812Z,10.62
2023-01-08T06:59:53.776Z,10.63
2023-01-08T07:00:53.767Z,10.63
2023-01-08T07:01:53.857Z,10.66
2023-01-08T07:02:53.915Z,10.66
2023-01-08T07:03:53.736Z,10.66
2023-01-08T07:04:53.743Z,10.66
2023-01-08T07:05:53.707Z,10.65
2023-01-08T07:06:53.697Z,10.63
2023-01-08T07:07:53.702Z,10.62
2023-01-08T07:08:53.702Z,10.63
2023-01-08T07:09:53.687Z,10.63
2023-01-08T07:10:53.645Z,10.60
2023-01-08T07:11:53.649Z,10.60
2023-01-08T07:12:53.628Z,10.59
2023-01-08T07:13:53.622Z,10.58
2023-01-08T07:14:53.627Z,10.56
2023-01-08T07:15:53.692Z,10.55
2023-01-08T07:16:53.595Z,10.55
2023-01-08T07:17:53.575Z,10.56
2023-01-08T07:18:53.565Z,10.58
2023-01-08T07:19:53.564Z,10.60
2023-01-08T07:20:53.546Z,10.63
2023-01-08T07:21:53.562Z,10.63
2023-01-08T07:22:53.517Z,10.63
2023-01-08T07:23:53.514Z,10.62
2023-01-08T07:24:53.503Z,10.65
2023-01-08T07:25:53.486Z,10.66
2023-01-08T07:26:53.499Z,10.70
2023-01-08T07:27:53.473Z,10.73
2023-01-08T07:28:53.449Z,10.74
2023-01-08T07:29:53.436Z,10.76
2023-01-08T07:30:53.470Z,10.77
2023-01-08T07:31:53.456Z,10.80
2023-01-08T07:32:53.407Z,10.78
2023-01-08T07:33:53.400Z,10.81
2023-01-08T07:34:53.397Z,10.81
2023-01-08T07:35:53.376Z,10.81
2023-01-08T07:36:53.369Z,10.83
2023-01-08T07:37:53.377Z,10.84
2023-01-08T07:38:53.355Z,10.84
2023-01-08T07:39:53.329Z,10.83
2023-01-08T07:40:53.320Z,10.84
2023-01-08T07:41:53.315Z,10.88
2023-01-08T07:42:53.317Z,10.86
2023-01-08T07:43:53.302Z,10.89
2023-01-08T07:44:53.277Z,10.88
2023-01-08T07:45:53.283Z,10.92
2023-01-08T07:46:53.316Z,10.89
2023-01-08T07:47:53.275Z,10.81
2023-01-08T07:48:53.232Z,10.71
2023-01-08T07:49:53.219Z,10.62
2023-01-08T07:50:53.209Z,10.53
2023-01-08T07:51:53.198Z,10.43
2023-01-08T07:52:53.212Z,10.36
2023-01-08T07:53:53.177Z,10.32
2023-01-08T07:54:53.161Z,10.25
2023-01-08T07:55:53.182Z,10.25
2023-01-08T07:56:53.140Z,10.22
2023-01-08T07:57:53.138Z,10.21
2023-01-08T07:58:53.141Z,10.18
2023-01-08T07:59:53.112Z,10.21
2023-01-08T08:00:53.098Z,10.21
2023-01-08T08:01:53.228Z,10.21
2023-01-08T08:02:53.149Z,10.21
2023-01-08T08:03:53.089Z,10.19
2023-01-08T08:04:53.058Z,10.19
2023-01-08T08:05:53.048Z,10.19
2023-01-08T08:06:53.028Z,10.18
2023-01-08T08:07:53.023Z,10.17
2023-01-08T08:08:53.038Z,10.18
2023-01-08T08:09:53.009Z,10.18
2023-01-08T08:10:52.984Z,10.18
2023-01-08T08:11:52.976Z,10.19
2023-01-08T08:12:52.965Z,10.18
2023-01-08T08:13:54.695Z,10.19
2023-01-08T08:14:52.963Z,10.18
2023-01-08T08:15:52.976Z,10.15
2023-01-08T08:16:52.946Z,10.12
2023-01-08T08:17:52.909Z,10.06
2023-01-08T08:18:52.921Z,10.00
2023-01-08T08:19:52.880Z,9.97
2023-01-08T08:20:52.876Z,9.94
2023-01-08T08:21:52.865Z,9.91
2023-01-08T08:22:52.852Z,9.86
2023-01-08T08:23:52.872Z,9.83
2023-01-08T08:24:52.832Z,9.82
2023-01-08T08:25:52.835Z,9.78
2023-01-08T08:26:52.812Z,9.76
2023-01-08T08:27:52.798Z,9.75
2023-01-08T08:28:52.790Z,9.75
2023-01-08T08:29:52.786Z,9.76
2023-01-08T08:30:52.828Z,9.75
2023-01-08T08:31:52.780Z,9.75
2023-01-08T08:32:52.743Z,9.73
2023-01-08T08:33:52.725Z,9.73
2023-01-08T08:34:52.719Z,9.71
2023-01-08T08:35:52.703Z,9.71
2023-01-08T08:36:52.723Z,9.68
2023-01-08T08:37:52.693Z,9.67
2023-01-08T08:38:52.674Z,9.64
2023-01-08T08:39:52.668Z,9.63
2023-01-08T08:40:52.676Z,9.63
2023-01-08T08:41:52.677Z,9.61
2023-01-08T08:42:52.633Z,9.61
2023-01-08T08:43:52.616Z,9.57
2023-01-08T08:44:52.616Z,9.56
2023-01-08T08:45:52.776Z,9.56
2023-01-08T08:46:52.647Z,9.56
2023-01-08T08:47:52.583Z,9.57
2023-01-08T08:48:52.571Z,9.58
2023-01-08T08:49:52.544Z,9.56
2023-01-08T08:50:52.554Z,9.56
2023-01-08T08:51:52.534Z,9.57
2023-01-08T08:52:52.550Z,9.57
2023-01-08T08:53:52.513Z,9.56
2023-01-08T08:54:52.503Z,9.56
2023-01-08T08:55:52.489Z,9.56
2023-01-08T08:56:52.482Z,9.56
2023-01-08T08:57:52.483Z,9.57
2023-01-08T08:58:52.474Z,9.60
2023-01-08T08:59:52.451Z,9.63
2023-01-08T09:00:52.437Z,9.64
2023-01-08T09:01:52.560Z,9.67
2023-01-08T09:02:52.491Z,9.68
2023-01-08T09:03:52.454Z,9.68
2023-01-08T09:04:52.386Z,9.71
2023-01-08T09:05:52.368Z,9.73
2023-01-08T09:06:52.363Z,9.83
2023-01-08T09:07:52.355Z,9.88
2023-01-08T09:08:52.348Z,9.91
2023-01-08T09:09:52.357Z,9.91
2023-01-08T09:10:52.330Z,9.88
2023-01-08T09:11:52.305Z,9.93
2023-01-08T09:12:52.300Z,10.14
2023-01-08T09:13:52.315Z,10.25
2023-01-08T09:14:52.275Z,10.32
2023-01-08T09:15:52.328Z,10.26
2023-01-08T09:16:52.265Z,10.15
2023-01-08T09:17:52.232Z,10.06
2023-01-08T09:18:52.229Z,10.10
2023-01-08T09:19:52.235Z,10.19
2023-01-08T09:20:52.206Z,10.47
2023-01-08T09:21:52.188Z,10.76
2023-01-08T09:22:52.206Z,10.94
2023-01-08T09:23:52.169Z,11.13
2023-01-08T09:24:52.159Z,11.21
2023-01-08T09:25:52.163Z,11.20
2023-01-08T09:26:52.157Z,11.41
2023-01-08T09:27:52.165Z,11.39
2023-01-08T09:28:52.117Z,11.43
2023-01-08T09:29:52.102Z,11.39
2023-01-08T09:30:52.097Z,11.35
2023-01-08T09:31:52.138Z,11.41
2023-01-08T09:32:52.105Z,11.64
2023-01-08T09:33:52.071Z,11.85
2023-01-08T09:34:52.048Z,12.04
2023-01-08T09:35:52.036Z,12.23
2023-01-08T09:36:52.025Z,12.33
2023-01-08T09:37:52.012Z,12.56
2023-01-08T09:38:52.028Z,12.39
2023-01-08T09:40:01.666Z,12.38
2023-01-08T09:40:52.977Z,12.44
2023-01-08T09:41:51.976Z,12.59
2023-01-08T09:42:51.961Z,12.66
2023-01-08T09:43:51.948Z,12.77
2023-01-08T09:44:51.956Z,12.96
2023-01-08T09:45:51.921Z,13.20
2023-01-08T09:46:52.079Z,13.14
2023-01-08T09:47:51.897Z,13.17
2023-01-08T09:48:51.917Z,13.03
2023-01-08T09:49:51.904Z,12.95
2023-01-08T09:50:51.867Z,13.06
2023-01-08T09:51:51.864Z,13.25
2023-01-08T09:52:51.850Z,13.63
2023-01-08T09:53:51.838Z,13.76
2023-01-08T09:54:51.831Z,13.52
2023-01-08T09:56:04.624Z,13.69
2023-01-08T09:56:52.812Z,13.79
2023-01-08T09:57:51.797Z,13.73
2023-01-08T09:58:51.786Z,13.87
2023-01-08T09:59:51.780Z,14.16
2023-01-08T10:00:51.830Z,14.35
2023-01-08T10:01:51.848Z,14.17
2023-01-08T10:02:51.826Z,13.55
2023-01-08T10:03:51.722Z,12.99
2023-01-08T10:04:54.316Z,12.57
2023-01-08T10:05:51.739Z,12.15
2023-01-08T10:06:51.700Z,11.80
2023-01-08T10:07:51.682Z,11.46
2023-01-08T10:08:51.694Z,11.35
2023-01-08T10:09:51.661Z,11.24
2023-01-08T10:10:51.691Z,11.11
2023-01-08T10:11:51.650Z,11.06
2023-01-08T10:12:51.638Z,11.01
2023-01-08T10:13:51.619Z,10.99
2023-01-08T10:14:53.089Z,10.99
2023-01-08T10:15:51.638Z,10.95
2023-01-08T10:16:51.632Z,10.91
2023-01-08T10:17:51.573Z,10.86
2023-01-08T10:18:51.562Z,10.86
2023-01-08T10:19:51.569Z,10.86
2023-01-08T10:20:53.929Z,10.80
2023-01-08T10:21:51.532Z,10.84
2023-01-08T10:22:51.540Z,10.91
2023-01-08T10:23:51.503Z,10.96
2023-01-08T10:24:51.526Z,11.01
2023-01-08T10:25:51.490Z,10.99
2023-01-08T10:26:52.642Z,10.99
2023-01-08T10:27:51.488Z,11.06
2023-01-08T10:28:51.461Z,11.11
2023-01-08T10:29:51.444Z,11.16
2023-01-08T10:30:51.446Z,11.27
2023-01-08T10:31:51.423Z,11.49
2023-01-08T10:32:53.513Z,12.04
2023-01-08T10:33:51.437Z,12.69
2023-01-08T10:34:51.409Z,13.29
2023-01-08T10:35:51.374Z,13.84
2023-01-08T10:36:51.364Z,14.32
2023-01-08T10:37:51.356Z,14.78
2023-01-08T10:38:51.373Z,14.81
2023-01-08T10:39:51.334Z,14.74
2023-01-08T10:40:51.325Z,14.90
2023-01-08T10:41:51.307Z,15.20
2023-01-08T10:42:51.302Z,15.12
2023-01-08T10:43:51.313Z,15.02
2023-01-08T10:44:51.275Z,15.15
2023-01-08T10:45:51.296Z,15.39
2023-01-08T10:46:51.253Z,15.30
2023-01-08T10:47:51.245Z,14.88
2023-01-08T10:48:51.255Z,15.01
2023-01-08T10:49:51.224Z,14.94
2023-01-08T10:50:58.263Z,15.08
2023-01-08T10:51:51.207Z,15.15
2023-01-08T10:52:51.193Z,15.43
2023-01-08T10:53:51.208Z,15.24
2023-01-08T10:54:51.166Z,14.91
2023-01-08T10:55:51.161Z,14.86
2023-01-08T10:56:51.159Z,14.87
2023-01-08T10:57:51.138Z,15.24
2023-01-08T10:58:51.128Z,15.33
2023-01-08T10:59:51.134Z,15.74
2023-01-08T11:00:51.140Z,16.20
2023-01-08T11:01:51.173Z,15.88
2023-01-08T11:02:51.085Z,15.99
2023-01-08T11:03:51.067Z,15.97
2023-01-08T11:04:51.081Z,15.88
2023-01-08T11:05:51.054Z,15.72
2023-01-08T11:06:51.046Z,15.68
2023-01-08T11:07:51.025Z,15.67
2023-01-08T11:08:51.730Z,15.75
2023-01-08T11:09:51.029Z,15.76
2023-01-08T11:10:51.001Z,15.96
2023-01-08T11:11:50.988Z,16.07
2023-01-08T11:12:50.977Z,16.22
2023-01-08T11:13:50.959Z,16.18
2023-01-08T11:14:51.786Z,16.22
2023-01-08T11:15:50.939Z,16.41
2023-01-08T11:16:50.936Z,16.25
2023-01-08T11:17:50.912Z,15.88
2023-01-08T11:18:50.920Z,15.15
2023-01-08T11:19:50.890Z,15.64
2023-01-08T11:20:50.909Z,16.00
2023-01-08T11:21:50.892Z,15.97
2023-01-08T11:22:50.862Z,15.99
2023-01-08T11:23:50.850Z,16.23
2023-01-08T11:24:50.840Z,16.22
2023-01-08T11:25:50.824Z,16.48
2023-01-08T11:26:50.848Z,16.58
2023-01-08T11:27:50.803Z,16.80
2023-01-08T11:28:50.817Z,17.30
2023-01-08T11:29:50.796Z,16.89
2023-01-08T11:30:50.784Z,16.85
2023-01-08T11:31:50.797Z,16.23
2023-01-08T11:32:50.783Z,15.97
2023-01-08T11:33:50.742Z,16.22
2023-01-08T11:34:50.733Z,16.53
2023-01-08T11:35:50.721Z,16.18
2023-01-08T11:36:50.713Z,15.84
2023-01-08T11:37:50.724Z,16.16
2023-01-08T11:38:50.691Z,16.37
2023-01-08T11:39:50.673Z,16.62
2023-01-08T11:40:50.670Z,16.86
2023-01-08T11:41:50.651Z,17.06
2023-01-08T11:42:50.665Z,17.03
2023-01-08T11:43:50.655Z,17.29
2023-01-08T11:44:50.720Z,17.79
2023-01-08T11:45:50.684Z,18.12
2023-01-08T11:46:50.596Z,17.87
2023-01-08T11:47:50.606Z,17.73
2023-01-08T11:48:50.578Z,16.96
2023-01-08T11:49:50.592Z,17.06
2023-01-08T11:50:50.578Z,17.47
2023-01-08T11:51:50.547Z,17.73
2023-01-08T11:52:50.535Z,17.59
2023-01-08T11:53:50.557Z,17.33
2023-01-08T11:54:50.515Z,17.33
2023-01-08T11:55:50.517Z,17.40
2023-01-08T11:56:50.529Z,17.97
2023-01-08T11:57:50.481Z,18.22
2023-01-08T11:58:50.475Z,18.34
2023-01-08T11:59:50.458Z,18.83
2023-01-08T12:00:50.450Z,19.21
2023-01-08T12:01:50.535Z,18.68
2023-01-08T12:02:50.473Z,18.22
2023-01-08T12:03:50.422Z,17.85
2023-01-08T12:04:50.399Z,18.28
2023-01-08T12:05:50.391Z,18.15
2023-01-08T12:06:50.400Z,17.85
2023-01-08T12:07:50.368Z,17.59
2023-01-08T12:08:50.380Z,17.81
2023-01-08T12:09:50.353Z,17.55
2023-01-08T12:10:50.339Z,17.57
2023-01-08T12:11:50.336Z,16.71
2023-01-08T12:12:50.324Z,15.78
2023-01-08T12:13:50.332Z,15.42
2023-01-08T12:14:50.290Z,15.17
2023-01-08T12:15:50.290Z,15.20
2023-01-08T12:16:50.273Z,14.98
2023-01-08T12:17:50.266Z,15.20
2023-01-08T12:18:50.244Z,15.31
2023-01-08T12:19:50.261Z,15.20
2023-01-08T12:20:50.234Z,15.03
2023-01-08T12:21:50.213Z,14.74
2023-01-08T12:22:50.222Z,14.74
2023-01-08T12:23:50.195Z,14.62
2023-01-08T12:24:50.192Z,14.37
2023-01-08T12:25:50.203Z,14.25
2023-01-08T12:26:50.162Z,14.46
2023-01-08T12:27:56.915Z,14.37
2023-01-08T12:28:51.162Z,14.39
2023-01-08T12:29:50.135Z,14.49
2023-01-08T12:30:50.131Z,14.52
2023-01-08T12:32:01.970Z,14.57
2023-01-08T12:32:51.096Z,14.49
2023-01-08T12:33:50.106Z,14.50
2023-01-08T12:34:50.079Z,14.52
2023-01-08T12:35:50.083Z,14.44
2023-01-08T12:36:50.052Z,14.32
2023-01-08T12:37:51.860Z,14.25
2023-01-08T12:38:50.067Z,14.19
2023-01-08T12:39:50.018Z,14.01
2023-01-08T12:40:50.006Z,13.95
2023-01-08T12:41:49.995Z,14.28
2023-01-08T12:42:59.909Z,14.31
2023-01-08T12:43:51.013Z,14.20
2023-01-08T12:44:49.985Z,14.37
2023-01-08T12:45:49.979Z,14.34
2023-01-08T12:46:49.949Z,14.16
2023-01-08T12:47:49.936Z,13.99
2023-01-08T12:48:51.757Z,13.76
2023-01-08T12:49:49.929Z,13.56
2023-01-08T12:50:49.898Z,13.41
2023-01-08T12:51:49.901Z,13.25
2023-01-08T12:52:49.880Z,13.17
2023-01-08T12:53:49.861Z,13.12
2023-01-08T12:54:49.869Z,13.04